ASA278 KPDX-KLAX
Flight info
| Callsign | ASA278 |
|---|---|
| Flight time | 1h 52m |
| Altitude | 35000 |
| Route | HRMNS6 HYJOE JAGWA BURGL IRNMN2 |
| Aircraft | B738/M-SDE2E3FGHIRWXY/LB1 |
Departure
| Time | 2026-04-24 00:20 |
|---|---|
| Airport | Portland International Airport (KPDX) |
Arrival
| Time | 2026-04-24 02:12 |
|---|---|
| Airport | Los Angeles International Airport (KLAX) |
| Time | Latitude | Longitude | Altitude | Speed | Heading |
|---|---|---|---|---|---|
| 2026-04-23 23:53 | 45.59049 | -122.59986 | 27 ft | 0 kts | 158° |
| 2026-04-24 00:10 | 45.59068 | -122.59997 | 27 ft | 4 kts | 161° |
| 2026-04-24 00:10 | 45.59094 | -122.60008 | 27 ft | 4 kts | 168° |
| 2026-04-24 00:11 | 45.59121 | -122.60012 | 27 ft | 4 kts | 185° |
| 2026-04-24 00:11 | 45.59142 | -122.60002 | 27 ft | 4 kts | 239° |
| 2026-04-24 00:11 | 45.59145 | -122.59996 | 27 ft | 0 kts | 250° |
| 2026-04-24 00:13 | 45.59131 | -122.60042 | 27 ft | 8 kts | 242° |
| 2026-04-24 00:14 | 45.59078 | -122.60110 | 27 ft | 12 kts | 210° |
| 2026-04-24 00:14 | 45.59003 | -122.60170 | 27 ft | 12 kts | 209° |
| 2026-04-24 00:14 | 45.58927 | -122.60221 | 27 ft | 12 kts | 189° |
| 2026-04-24 00:14 | 45.58860 | -122.60142 | 27 ft | 17 kts | 119° |
| 2026-04-24 00:15 | 45.58797 | -122.59979 | 27 ft | 20 kts | 119° |
| 2026-04-24 00:15 | 45.58732 | -122.59812 | 28 ft | 19 kts | 119° |
| 2026-04-24 00:15 | 45.58669 | -122.59651 | 27 ft | 18 kts | 119° |
| 2026-04-24 00:15 | 45.58608 | -122.59494 | 27 ft | 18 kts | 118° |
| 2026-04-24 00:16 | 45.58550 | -122.59346 | 27 ft | 17 kts | 119° |
| 2026-04-24 00:16 | 45.58493 | -122.59200 | 27 ft | 16 kts | 119° |
| 2026-04-24 00:16 | 45.58438 | -122.59060 | 27 ft | 16 kts | 119° |
| 2026-04-24 00:16 | 45.58384 | -122.58921 | 27 ft | 16 kts | 119° |
| 2026-04-24 00:17 | 45.58329 | -122.58781 | 27 ft | 16 kts | 119° |
| 2026-04-24 00:17 | 45.58277 | -122.58646 | 27 ft | 15 kts | 119° |
| 2026-04-24 00:17 | 45.58226 | -122.58516 | 27 ft | 15 kts | 119° |
| 2026-04-24 00:17 | 45.58177 | -122.58393 | 27 ft | 13 kts | 126° |
| 2026-04-24 00:18 | 45.58158 | -122.58369 | 27 ft | 0 kts | 148° |
| 2026-04-24 00:19 | 45.58156 | -122.58368 | 27 ft | 3 kts | 148° |
| 2026-04-24 00:19 | 45.58096 | -122.58379 | 26 ft | 13 kts | 221° |
| 2026-04-24 00:19 | 45.58093 | -122.58496 | 27 ft | 13 kts | 298° |
| 2026-04-24 00:19 | 45.58230 | -122.58841 | 28 ft | 76 kts | 299° |
| 2026-04-24 00:20 | 45.58449 | -122.59407 | 27 ft | 120 kts | 299° |
| 2026-04-24 00:20 | 45.58951 | -122.60689 | 52 ft | 171 kts | 299° |
| 2026-04-24 00:20 | 45.59550 | -122.62156 | 792 ft | 169 kts | 301° |
| 2026-04-24 00:20 | 45.60185 | -122.63627 | 1578 ft | 177 kts | 302° |
| 2026-04-24 00:21 | 45.60848 | -122.65123 | 2381 ft | 183 kts | 302° |
| 2026-04-24 00:21 | 45.61562 | -122.66752 | 2879 ft | 205 kts | 302° |
| 2026-04-24 00:21 | 45.62342 | -122.68599 | 3240 ft | 225 kts | 300° |
| 2026-04-24 00:21 | 45.63144 | -122.70612 | 3687 ft | 246 kts | 300° |
| 2026-04-24 00:22 | 45.64014 | -122.72788 | 4396 ft | 255 kts | 300° |
| 2026-04-24 00:22 | 45.64732 | -122.75114 | 5306 ft | 259 kts | 279° |
| 2026-04-24 00:22 | 45.64497 | -122.77669 | 6118 ft | 268 kts | 247° |
| 2026-04-24 00:22 | 45.63370 | -122.79842 | 6853 ft | 279 kts | 223° |
| 2026-04-24 00:23 | 45.61837 | -122.81528 | 7646 ft | 283 kts | 217° |
| 2026-04-24 00:23 | 45.60206 | -122.83135 | 8464 ft | 286 kts | 217° |
| 2026-04-24 00:23 | 45.58565 | -122.84778 | 9278 ft | 290 kts | 218° |
| 2026-04-24 00:23 | 45.56918 | -122.86462 | 10093 ft | 293 kts | 218° |
| 2026-04-24 00:24 | 45.55073 | -122.87896 | 10466 ft | 318 kts | 198° |
| 2026-04-24 00:24 | 45.52787 | -122.88040 | 10657 ft | 346 kts | 169° |
| 2026-04-24 00:24 | 45.50506 | -122.86679 | 10980 ft | 364 kts | 150° |
| 2026-04-24 00:24 | 45.48321 | -122.84777 | 11563 ft | 372 kts | 148° |
| 2026-04-24 00:25 | 45.46134 | -122.82771 | 12274 ft | 376 kts | 147° |
| 2026-04-24 00:25 | 45.43919 | -122.80744 | 12998 ft | 380 kts | 148° |
| 2026-04-24 00:25 | 45.41671 | -122.78726 | 13694 ft | 385 kts | 148° |
| 2026-04-24 00:25 | 45.39377 | -122.76705 | 14343 ft | 390 kts | 149° |
| 2026-04-24 00:26 | 45.37045 | -122.74681 | 14981 ft | 394 kts | 149° |
| 2026-04-24 00:26 | 45.34717 | -122.72680 | 15634 ft | 397 kts | 149° |
| 2026-04-24 00:26 | 45.32338 | -122.70647 | 16266 ft | 401 kts | 150° |
| 2026-04-24 00:26 | 45.29927 | -122.68594 | 16870 ft | 405 kts | 150° |
| 2026-04-24 00:27 | 45.27497 | -122.66528 | 17477 ft | 409 kts | 150° |
| 2026-04-24 00:27 | 45.25038 | -122.64440 | 18105 ft | 413 kts | 150° |
| 2026-04-24 00:27 | 45.22562 | -122.62340 | 18678 ft | 417 kts | 150° |
| 2026-04-24 00:27 | 45.20061 | -122.60219 | 19217 ft | 420 kts | 150° |
| 2026-04-24 00:28 | 45.17541 | -122.58084 | 19776 ft | 423 kts | 150° |
| 2026-04-24 00:28 | 45.15008 | -122.55940 | 20320 ft | 426 kts | 150° |
| 2026-04-24 00:28 | 45.12488 | -122.53809 | 20850 ft | 429 kts | 150° |
| 2026-04-24 00:28 | 45.09883 | -122.51609 | 21374 ft | 432 kts | 150° |
| 2026-04-24 00:29 | 45.07329 | -122.49454 | 21885 ft | 435 kts | 150° |
| 2026-04-24 00:29 | 45.04720 | -122.47255 | 22392 ft | 437 kts | 150° |
| 2026-04-24 00:29 | 45.02098 | -122.45046 | 22896 ft | 440 kts | 150° |
| 2026-04-24 00:29 | 44.99450 | -122.42819 | 23397 ft | 443 kts | 149° |
| 2026-04-24 00:30 | 44.96790 | -122.40584 | 23872 ft | 446 kts | 150° |
| 2026-04-24 00:30 | 44.94038 | -122.38535 | 24265 ft | 448 kts | 158° |
| 2026-04-24 00:30 | 44.91099 | -122.37032 | 24639 ft | 451 kts | 162° |
| 2026-04-24 00:30 | 44.88106 | -122.35658 | 25004 ft | 453 kts | 163° |
| 2026-04-24 00:31 | 44.85095 | -122.34309 | 25389 ft | 456 kts | 163° |
| 2026-04-24 00:31 | 44.82061 | -122.32949 | 25749 ft | 459 kts | 163° |
| 2026-04-24 00:31 | 44.79015 | -122.31568 | 26131 ft | 461 kts | 162° |
| 2026-04-24 00:31 | 44.75953 | -122.30164 | 26468 ft | 464 kts | 162° |
| 2026-04-24 00:32 | 44.72881 | -122.28746 | 26828 ft | 466 kts | 162° |
| 2026-04-24 00:32 | 44.69794 | -122.27314 | 27178 ft | 468 kts | 162° |
| 2026-04-24 00:32 | 44.66690 | -122.25873 | 27507 ft | 470 kts | 161° |
| 2026-04-24 00:32 | 44.63580 | -122.24429 | 27838 ft | 473 kts | 161° |
| 2026-04-24 00:33 | 44.60486 | -122.22995 | 28160 ft | 475 kts | 161° |
| 2026-04-24 00:33 | 44.57300 | -122.21520 | 28469 ft | 478 kts | 161° |
| 2026-04-24 00:33 | 44.54171 | -122.20074 | 28781 ft | 480 kts | 161° |
| 2026-04-24 00:33 | 44.50986 | -122.18604 | 29083 ft | 482 kts | 161° |
| 2026-04-24 00:34 | 44.47790 | -122.17131 | 29394 ft | 484 kts | 161° |
| 2026-04-24 00:34 | 44.44581 | -122.15654 | 29692 ft | 486 kts | 161° |
| 2026-04-24 00:34 | 44.41358 | -122.14172 | 29973 ft | 488 kts | 161° |
| 2026-04-24 00:34 | 44.38127 | -122.12688 | 30296 ft | 489 kts | 161° |
| 2026-04-24 00:35 | 44.34899 | -122.11207 | 30654 ft | 487 kts | 161° |
| 2026-04-24 00:35 | 44.31680 | -122.09733 | 31065 ft | 485 kts | 161° |
| 2026-04-24 00:35 | 44.28473 | -122.08265 | 31414 ft | 483 kts | 161° |
| 2026-04-24 00:35 | 44.25315 | -122.06822 | 31710 ft | 483 kts | 161° |
| 2026-04-24 00:36 | 44.22125 | -122.05365 | 32022 ft | 483 kts | 161° |
| 2026-04-24 00:36 | 44.18938 | -122.03911 | 32355 ft | 481 kts | 161° |
| 2026-04-24 00:36 | 44.15763 | -122.02465 | 32698 ft | 480 kts | 161° |
| 2026-04-24 00:36 | 44.12596 | -122.01023 | 33026 ft | 479 kts | 161° |
| 2026-04-24 00:37 | 44.09427 | -121.99583 | 33341 ft | 478 kts | 161° |
| 2026-04-24 00:37 | 44.06271 | -121.98149 | 33684 ft | 477 kts | 161° |
| 2026-04-24 00:37 | 44.03120 | -121.96721 | 34025 ft | 475 kts | 160° |
| 2026-04-24 00:37 | 43.99982 | -121.95299 | 34316 ft | 474 kts | 161° |
| 2026-04-24 00:38 | 43.96844 | -121.93878 | 34568 ft | 473 kts | 161° |
| 2026-04-24 00:38 | 43.93709 | -121.92460 | 34814 ft | 472 kts | 161° |
| 2026-04-24 00:38 | 43.90581 | -121.91047 | 35058 ft | 472 kts | 161° |
| 2026-04-24 00:38 | 43.87457 | -121.89638 | 35146 ft | 474 kts | 161° |
| 2026-04-24 00:39 | 43.81002 | -121.87641 | 35153 ft | 476 kts | 171° |
| 2026-04-24 00:39 | 43.74519 | -121.86341 | 35125 ft | 471 kts | 172° |
| 2026-04-24 00:40 | 43.68049 | -121.85063 | 35125 ft | 468 kts | 171° |
| 2026-04-24 00:40 | 43.61607 | -121.83742 | 35117 ft | 467 kts | 171° |
| 2026-04-24 00:41 | 43.55189 | -121.82398 | 35122 ft | 466 kts | 171° |
| 2026-04-24 00:41 | 43.48775 | -121.81052 | 35111 ft | 466 kts | 171° |
| 2026-04-24 00:42 | 43.42361 | -121.79708 | 35113 ft | 467 kts | 171° |
| 2026-04-24 00:42 | 43.35934 | -121.78367 | 35101 ft | 467 kts | 171° |
| 2026-04-24 00:43 | 43.29493 | -121.77026 | 35099 ft | 467 kts | 171° |
| 2026-04-24 00:43 | 43.23094 | -121.75697 | 35095 ft | 468 kts | 171° |
| 2026-04-24 00:44 | 43.16650 | -121.74361 | 35089 ft | 467 kts | 171° |
| 2026-04-24 00:44 | 43.10219 | -121.73031 | 35093 ft | 466 kts | 171° |
| 2026-04-24 00:45 | 43.03804 | -121.71707 | 35091 ft | 465 kts | 172° |
| 2026-04-24 00:45 | 42.97407 | -121.70389 | 35088 ft | 464 kts | 172° |
| 2026-04-24 00:46 | 42.91072 | -121.69087 | 35086 ft | 462 kts | 172° |
| 2026-04-24 00:46 | 42.84720 | -121.67785 | 35087 ft | 461 kts | 172° |
| 2026-04-24 00:47 | 42.78388 | -121.66488 | 35088 ft | 459 kts | 172° |
| 2026-04-24 00:47 | 42.72070 | -121.65198 | 35090 ft | 458 kts | 172° |
| 2026-04-24 00:48 | 42.65773 | -121.63915 | 35086 ft | 457 kts | 172° |
| 2026-04-24 00:48 | 42.59482 | -121.62635 | 35091 ft | 457 kts | 172° |
| 2026-04-24 00:49 | 42.53192 | -121.61359 | 35093 ft | 457 kts | 172° |
| 2026-04-24 00:49 | 42.46940 | -121.60092 | 35097 ft | 457 kts | 172° |
| 2026-04-24 00:50 | 42.40603 | -121.58811 | 35093 ft | 457 kts | 172° |
| 2026-04-24 00:50 | 42.34345 | -121.57548 | 35096 ft | 458 kts | 172° |
| 2026-04-24 00:51 | 42.28030 | -121.56276 | 35097 ft | 458 kts | 172° |
| 2026-04-24 00:51 | 42.21711 | -121.55007 | 35093 ft | 458 kts | 172° |
| 2026-04-24 00:52 | 42.15437 | -121.53748 | 35084 ft | 459 kts | 172° |
| 2026-04-24 00:52 | 42.09107 | -121.52481 | 35095 ft | 459 kts | 172° |
| 2026-04-24 00:53 | 42.02782 | -121.51218 | 35095 ft | 459 kts | 173° |
| 2026-04-24 00:53 | 41.96451 | -121.49956 | 35092 ft | 460 kts | 173° |
| 2026-04-24 00:54 | 41.90156 | -121.48703 | 35102 ft | 460 kts | 173° |
| 2026-04-24 00:54 | 41.83816 | -121.47444 | 35096 ft | 461 kts | 173° |
| 2026-04-24 00:55 | 41.77466 | -121.46186 | 35102 ft | 461 kts | 174° |
| 2026-04-24 00:55 | 41.71111 | -121.44929 | 35103 ft | 462 kts | 174° |
| 2026-04-24 00:56 | 41.64750 | -121.43673 | 35107 ft | 462 kts | 174° |
| 2026-04-24 00:56 | 41.58369 | -121.42416 | 35107 ft | 463 kts | 174° |
| 2026-04-24 00:57 | 41.51982 | -121.41161 | 35101 ft | 464 kts | 175° |
| 2026-04-24 00:58 | 41.42425 | -121.39287 | 35095 ft | 466 kts | 175° |
| 2026-04-24 00:58 | 41.36005 | -121.38031 | 35093 ft | 467 kts | 176° |
| 2026-04-24 00:59 | 41.29565 | -121.36774 | 35086 ft | 468 kts | 176° |
| 2026-04-24 00:59 | 41.23113 | -121.35517 | 35070 ft | 468 kts | 176° |
| 2026-04-24 01:00 | 41.16652 | -121.34261 | 35076 ft | 470 kts | 176° |
| 2026-04-24 01:00 | 41.10206 | -121.33011 | 35057 ft | 471 kts | 176° |
| 2026-04-24 01:01 | 41.03713 | -121.31752 | 35054 ft | 472 kts | 177° |
| 2026-04-24 01:01 | 40.97221 | -121.30497 | 35064 ft | 471 kts | 177° |
| 2026-04-24 01:02 | 40.90720 | -121.29243 | 35059 ft | 472 kts | 177° |
| 2026-04-24 01:02 | 40.84231 | -121.27993 | 35073 ft | 471 kts | 177° |
| 2026-04-24 01:03 | 40.77744 | -121.26746 | 35074 ft | 470 kts | 178° |
| 2026-04-24 01:03 | 40.71256 | -121.25502 | 35068 ft | 469 kts | 178° |
| 2026-04-24 01:04 | 40.64838 | -121.24274 | 35076 ft | 469 kts | 178° |
| 2026-04-24 01:04 | 40.58383 | -121.23041 | 35074 ft | 468 kts | 178° |
| 2026-04-24 01:05 | 40.51939 | -121.21811 | 35072 ft | 466 kts | 178° |
| 2026-04-24 01:05 | 40.45519 | -121.20590 | 35059 ft | 465 kts | 178° |
| 2026-04-24 01:06 | 40.39114 | -121.19375 | 35067 ft | 465 kts | 178° |
| 2026-04-24 01:06 | 40.33789 | -121.18366 | 35071 ft | 465 kts | 178° |
| 2026-04-24 01:07 | 40.27375 | -121.17153 | 35064 ft | 466 kts | 178° |
| 2026-04-24 01:07 | 40.20949 | -121.15940 | 35067 ft | 466 kts | 178° |
| 2026-04-24 01:08 | 40.14513 | -121.14727 | 35067 ft | 467 kts | 178° |
| 2026-04-24 01:08 | 40.08070 | -121.13516 | 35096 ft | 468 kts | 178° |
| 2026-04-24 01:09 | 40.01600 | -121.12301 | 35060 ft | 469 kts | 178° |
| 2026-04-24 01:09 | 39.95178 | -121.11095 | 35063 ft | 468 kts | 178° |
| 2026-04-24 01:10 | 39.87648 | -121.09685 | 35062 ft | 466 kts | 178° |
| 2026-04-24 01:10 | 39.82319 | -121.08690 | 35073 ft | 465 kts | 178° |
| 2026-04-24 01:11 | 39.75934 | -121.07498 | 35080 ft | 462 kts | 178° |
| 2026-04-24 01:11 | 39.69550 | -121.06313 | 35069 ft | 462 kts | 178° |
| 2026-04-24 01:12 | 39.63190 | -121.05133 | 35076 ft | 461 kts | 178° |
| 2026-04-24 01:12 | 39.56881 | -121.03964 | 35082 ft | 461 kts | 178° |
| 2026-04-24 01:13 | 39.50540 | -121.02791 | 35074 ft | 460 kts | 178° |
| 2026-04-24 01:13 | 39.44197 | -121.01620 | 35078 ft | 460 kts | 178° |
| 2026-04-24 01:14 | 39.37849 | -121.00451 | 35083 ft | 461 kts | 178° |
| 2026-04-24 01:14 | 39.31489 | -120.99282 | 35074 ft | 462 kts | 178° |
| 2026-04-24 01:15 | 39.25159 | -120.98120 | 35080 ft | 462 kts | 178° |
| 2026-04-24 01:15 | 39.18780 | -120.96950 | 35078 ft | 463 kts | 178° |
| 2026-04-24 01:16 | 39.12388 | -120.95780 | 35083 ft | 464 kts | 178° |
| 2026-04-24 01:16 | 39.05994 | -120.94613 | 35071 ft | 464 kts | 178° |
| 2026-04-24 01:17 | 38.99628 | -120.93452 | 35069 ft | 464 kts | 178° |
| 2026-04-24 01:17 | 38.93240 | -120.92289 | 35082 ft | 463 kts | 178° |
| 2026-04-24 01:18 | 38.86834 | -120.91126 | 35069 ft | 464 kts | 178° |
| 2026-04-24 01:18 | 38.80437 | -120.89966 | 35088 ft | 464 kts | 178° |
| 2026-04-24 01:19 | 38.74044 | -120.88809 | 35090 ft | 464 kts | 178° |
| 2026-04-24 01:19 | 38.67656 | -120.87655 | 35099 ft | 464 kts | 178° |
| 2026-04-24 01:20 | 38.61303 | -120.86510 | 35088 ft | 464 kts | 178° |
| 2026-04-24 01:20 | 38.54894 | -120.85356 | 35070 ft | 464 kts | 178° |
| 2026-04-24 01:21 | 38.48503 | -120.84208 | 35069 ft | 464 kts | 178° |
| 2026-04-24 01:21 | 38.42100 | -120.83059 | 35074 ft | 464 kts | 178° |
| 2026-04-24 01:22 | 38.35708 | -120.81915 | 35072 ft | 464 kts | 178° |
| 2026-04-24 01:22 | 38.29359 | -120.80780 | 35066 ft | 463 kts | 178° |
| 2026-04-24 01:23 | 38.22981 | -120.79642 | 35063 ft | 463 kts | 178° |
| 2026-04-24 01:23 | 38.16600 | -120.78506 | 35068 ft | 462 kts | 178° |
| 2026-04-24 01:24 | 38.10238 | -120.77375 | 35063 ft | 462 kts | 179° |
| 2026-04-24 01:24 | 38.03864 | -120.76244 | 35062 ft | 462 kts | 178° |
| 2026-04-24 01:25 | 37.97508 | -120.75118 | 35066 ft | 461 kts | 178° |
| 2026-04-24 01:25 | 37.91180 | -120.74000 | 35056 ft | 461 kts | 178° |
| 2026-04-24 01:26 | 37.84824 | -120.72878 | 35048 ft | 461 kts | 178° |
| 2026-04-24 01:26 | 37.78464 | -120.71757 | 35046 ft | 460 kts | 178° |
| 2026-04-24 01:27 | 37.72131 | -120.70642 | 35042 ft | 459 kts | 178° |
| 2026-04-24 01:27 | 37.65806 | -120.69532 | 35036 ft | 458 kts | 178° |
| 2026-04-24 01:28 | 37.59481 | -120.68423 | 35040 ft | 458 kts | 178° |
| 2026-04-24 01:28 | 37.53204 | -120.67325 | 35041 ft | 458 kts | 179° |
| 2026-04-24 01:29 | 37.46898 | -120.66222 | 35043 ft | 457 kts | 179° |
| 2026-04-24 01:29 | 37.40586 | -120.65121 | 35040 ft | 457 kts | 179° |
| 2026-04-24 01:30 | 37.34291 | -120.64025 | 35041 ft | 457 kts | 179° |
| 2026-04-24 01:30 | 37.28030 | -120.62383 | 35029 ft | 462 kts | 172° |
| 2026-04-24 01:31 | 37.21851 | -120.60296 | 35023 ft | 463 kts | 171° |
| 2026-04-24 01:31 | 37.15630 | -120.58189 | 35029 ft | 462 kts | 171° |
| 2026-04-24 01:32 | 37.09404 | -120.56140 | 35034 ft | 462 kts | 172° |
| 2026-04-24 01:32 | 37.03178 | -120.54125 | 35036 ft | 462 kts | 172° |
| 2026-04-24 01:33 | 36.96978 | -120.52127 | 35044 ft | 462 kts | 172° |
| 2026-04-24 01:33 | 36.90752 | -120.50123 | 35048 ft | 462 kts | 172° |
| 2026-04-24 01:34 | 36.84522 | -120.48120 | 35046 ft | 462 kts | 172° |
| 2026-04-24 01:34 | 36.78295 | -120.46120 | 35048 ft | 462 kts | 172° |
| 2026-04-24 01:35 | 36.72059 | -120.44120 | 35046 ft | 462 kts | 172° |
| 2026-04-24 01:35 | 36.65828 | -120.42125 | 35049 ft | 462 kts | 172° |
| 2026-04-24 01:36 | 36.59586 | -120.40130 | 35047 ft | 462 kts | 172° |
| 2026-04-24 01:36 | 36.53354 | -120.38142 | 35044 ft | 462 kts | 172° |
| 2026-04-24 01:37 | 36.47136 | -120.36162 | 35047 ft | 462 kts | 172° |
| 2026-04-24 01:37 | 36.40900 | -120.34179 | 35045 ft | 462 kts | 172° |
| 2026-04-24 01:38 | 36.34679 | -120.32204 | 35043 ft | 461 kts | 172° |
| 2026-04-24 01:38 | 36.28501 | -120.30246 | 35040 ft | 461 kts | 172° |
| 2026-04-24 01:39 | 36.22297 | -120.28283 | 35036 ft | 460 kts | 172° |
| 2026-04-24 01:39 | 36.16074 | -120.26317 | 35039 ft | 460 kts | 172° |
| 2026-04-24 01:40 | 36.09872 | -120.24361 | 35035 ft | 460 kts | 172° |
| 2026-04-24 01:40 | 36.03669 | -120.22408 | 35036 ft | 459 kts | 172° |
| 2026-04-24 01:41 | 35.97469 | -120.20460 | 35044 ft | 462 kts | 173° |
| 2026-04-24 01:41 | 35.91206 | -120.18500 | 35037 ft | 471 kts | 172° |
| 2026-04-24 01:42 | 35.84821 | -120.16498 | 35041 ft | 475 kts | 172° |
| 2026-04-24 01:42 | 35.78392 | -120.14484 | 35032 ft | 477 kts | 172° |
| 2026-04-24 01:43 | 35.71963 | -120.12473 | 35034 ft | 477 kts | 172° |
| 2026-04-24 01:43 | 35.65567 | -120.10188 | 35013 ft | 486 kts | 160° |
| 2026-04-24 01:44 | 35.59741 | -120.05865 | 35033 ft | 492 kts | 153° |
| 2026-04-24 01:44 | 35.53988 | -120.01334 | 35028 ft | 490 kts | 154° |
| 2026-04-24 01:45 | 35.48198 | -119.96906 | 35029 ft | 490 kts | 154° |
| 2026-04-24 01:45 | 35.42385 | -119.92541 | 35019 ft | 489 kts | 155° |
| 2026-04-24 01:46 | 35.36605 | -119.88209 | 35025 ft | 488 kts | 155° |
| 2026-04-24 01:46 | 35.33705 | -119.86036 | 34877 ft | 491 kts | 155° |
| 2026-04-24 01:46 | 35.30776 | -119.83844 | 34255 ft | 494 kts | 154° |
| 2026-04-24 01:46 | 35.27864 | -119.81617 | 33502 ft | 492 kts | 152° |
| 2026-04-24 01:47 | 35.25082 | -119.79183 | 32780 ft | 491 kts | 148° |
| 2026-04-24 01:47 | 35.22417 | -119.76652 | 32166 ft | 489 kts | 147° |
| 2026-04-24 01:47 | 35.19728 | -119.74032 | 31679 ft | 489 kts | 146° |
| 2026-04-24 01:47 | 35.17051 | -119.71440 | 31165 ft | 493 kts | 147° |
| 2026-04-24 01:48 | 35.14328 | -119.68843 | 30652 ft | 498 kts | 147° |
| 2026-04-24 01:48 | 35.11638 | -119.66309 | 30061 ft | 493 kts | 147° |
| 2026-04-24 01:48 | 35.08937 | -119.63784 | 29736 ft | 483 kts | 147° |
| 2026-04-24 01:48 | 35.06250 | -119.61288 | 29461 ft | 490 kts | 147° |
| 2026-04-24 01:49 | 35.03499 | -119.58742 | 28641 ft | 497 kts | 147° |
| 2026-04-24 01:49 | 35.00776 | -119.56214 | 28095 ft | 489 kts | 147° |
| 2026-04-24 01:49 | 34.98081 | -119.53711 | 27462 ft | 484 kts | 147° |
| 2026-04-24 01:49 | 34.95416 | -119.51237 | 26856 ft | 479 kts | 147° |
| 2026-04-24 01:50 | 34.92780 | -119.48793 | 26257 ft | 474 kts | 147° |
| 2026-04-24 01:50 | 34.90159 | -119.46379 | 25735 ft | 469 kts | 147° |
| 2026-04-24 01:50 | 34.87549 | -119.44029 | 25281 ft | 461 kts | 148° |
| 2026-04-24 01:50 | 34.84963 | -119.41729 | 24829 ft | 462 kts | 148° |
| 2026-04-24 01:51 | 34.82385 | -119.39441 | 24377 ft | 466 kts | 148° |
| 2026-04-24 01:51 | 34.79779 | -119.37120 | 23898 ft | 461 kts | 147° |
| 2026-04-24 01:51 | 34.77216 | -119.34830 | 23406 ft | 455 kts | 147° |
| 2026-04-24 01:51 | 34.74683 | -119.32567 | 22901 ft | 448 kts | 148° |
| 2026-04-24 01:52 | 34.72179 | -119.30362 | 22406 ft | 441 kts | 148° |
| 2026-04-24 01:52 | 34.69705 | -119.28207 | 21942 ft | 434 kts | 148° |
| 2026-04-24 01:52 | 34.68050 | -119.26766 | 21638 ft | 430 kts | 148° |
| 2026-04-24 01:52 | 34.65667 | -119.24689 | 21201 ft | 424 kts | 148° |
| 2026-04-24 01:53 | 34.63280 | -119.22618 | 20777 ft | 419 kts | 148° |
| 2026-04-24 01:53 | 34.60929 | -119.20591 | 20334 ft | 410 kts | 148° |
| 2026-04-24 01:53 | 34.58633 | -119.18585 | 19912 ft | 401 kts | 148° |
| 2026-04-24 01:53 | 34.56399 | -119.16610 | 19502 ft | 394 kts | 148° |
| 2026-04-24 01:54 | 34.54190 | -119.14646 | 19105 ft | 390 kts | 148° |
| 2026-04-24 01:54 | 34.52019 | -119.12708 | 18686 ft | 385 kts | 148° |
| 2026-04-24 01:54 | 34.49856 | -119.10778 | 18225 ft | 387 kts | 148° |
| 2026-04-24 01:54 | 34.47668 | -119.08830 | 17616 ft | 392 kts | 147° |
| 2026-04-24 01:55 | 34.45458 | -119.06875 | 17033 ft | 394 kts | 148° |
| 2026-04-24 01:55 | 34.43224 | -119.04969 | 16572 ft | 389 kts | 149° |
| 2026-04-24 01:55 | 34.41032 | -119.03119 | 16228 ft | 378 kts | 148° |
| 2026-04-24 01:55 | 34.38896 | -119.01296 | 15706 ft | 373 kts | 148° |
| 2026-04-24 01:56 | 34.36799 | -118.99489 | 15283 ft | 368 kts | 148° |
| 2026-04-24 01:56 | 34.34724 | -118.97694 | 14878 ft | 366 kts | 148° |
| 2026-04-24 01:56 | 34.32677 | -118.95883 | 14545 ft | 363 kts | 146° |
| 2026-04-24 01:56 | 34.30664 | -118.94047 | 14110 ft | 362 kts | 146° |
| 2026-04-24 01:57 | 34.28680 | -118.92234 | 13657 ft | 362 kts | 146° |
| 2026-04-24 01:57 | 34.26672 | -118.90407 | 13199 ft | 363 kts | 146° |
| 2026-04-24 01:57 | 34.24609 | -118.88533 | 12789 ft | 385 kts | 145° |
| 2026-04-24 01:57 | 34.22394 | -118.86502 | 12459 ft | 408 kts | 144° |
| 2026-04-24 01:58 | 34.20119 | -118.84406 | 12274 ft | 414 kts | 144° |
| 2026-04-24 01:58 | 34.17834 | -118.82304 | 12083 ft | 410 kts | 144° |
| 2026-04-24 01:58 | 34.15585 | -118.80198 | 11796 ft | 410 kts | 142° |
| 2026-04-24 01:58 | 34.13433 | -118.77915 | 11350 ft | 411 kts | 139° |
| 2026-04-24 01:59 | 34.11365 | -118.75584 | 10939 ft | 403 kts | 138° |
| 2026-04-24 01:59 | 34.09325 | -118.73293 | 10543 ft | 397 kts | 139° |
| 2026-04-24 01:59 | 34.07289 | -118.71054 | 10157 ft | 396 kts | 139° |
| 2026-04-24 01:59 | 34.05361 | -118.68715 | 9728 ft | 390 kts | 128° |
| 2026-04-24 02:00 | 34.03870 | -118.66077 | 9342 ft | 370 kts | 123° |
| 2026-04-24 02:00 | 34.02615 | -118.63629 | 8960 ft | 354 kts | 122° |
| 2026-04-24 02:00 | 34.01380 | -118.61180 | 8623 ft | 337 kts | 122° |
| 2026-04-24 02:00 | 34.00193 | -118.58819 | 8349 ft | 321 kts | 121° |
| 2026-04-24 02:01 | 33.99063 | -118.56576 | 8171 ft | 305 kts | 121° |
| 2026-04-24 02:01 | 33.97989 | -118.54448 | 7966 ft | 294 kts | 121° |
| 2026-04-24 02:01 | 33.96927 | -118.52350 | 7609 ft | 292 kts | 121° |
| 2026-04-24 02:01 | 33.95874 | -118.50282 | 7247 ft | 287 kts | 121° |
| 2026-04-24 02:02 | 33.94829 | -118.48249 | 6880 ft | 283 kts | 121° |
| 2026-04-24 02:02 | 33.93794 | -118.46257 | 6536 ft | 279 kts | 121° |
| 2026-04-24 02:02 | 33.92766 | -118.44298 | 6246 ft | 273 kts | 121° |
| 2026-04-24 02:02 | 33.91751 | -118.42378 | 5952 ft | 271 kts | 121° |
| 2026-04-24 02:03 | 33.89719 | -118.38543 | 5415 ft | 271 kts | 121° |
| 2026-04-24 02:03 | 33.88708 | -118.36630 | 5189 ft | 271 kts | 121° |
| 2026-04-24 02:03 | 33.87696 | -118.34711 | 4939 ft | 270 kts | 121° |
| 2026-04-24 02:04 | 33.86713 | -118.32847 | 4616 ft | 264 kts | 122° |
| 2026-04-24 02:04 | 33.85995 | -118.30883 | 4228 ft | 253 kts | 96° |
| 2026-04-24 02:04 | 33.86172 | -118.28846 | 3899 ft | 241 kts | 77° |
| 2026-04-24 02:04 | 33.86538 | -118.26908 | 3652 ft | 232 kts | 77° |
| 2026-04-24 02:05 | 33.86896 | -118.25032 | 3613 ft | 228 kts | 76° |
| 2026-04-24 02:05 | 33.87249 | -118.23189 | 3584 ft | 226 kts | 76° |
| 2026-04-24 02:05 | 33.87603 | -118.21338 | 3585 ft | 227 kts | 76° |
| 2026-04-24 02:05 | 33.87961 | -118.19472 | 3419 ft | 231 kts | 76° |
| 2026-04-24 02:06 | 33.88325 | -118.17578 | 3169 ft | 232 kts | 76° |
| 2026-04-24 02:06 | 33.88690 | -118.15689 | 2922 ft | 231 kts | 76° |
| 2026-04-24 02:06 | 33.89238 | -118.13902 | 2639 ft | 227 kts | 50° |
| 2026-04-24 02:06 | 33.90496 | -118.12925 | 2390 ft | 210 kts | 7° |
| 2026-04-24 02:07 | 33.91839 | -118.13214 | 2126 ft | 193 kts | 322° |
| 2026-04-24 02:07 | 33.92600 | -118.14420 | 2013 ft | 179 kts | 284° |
| 2026-04-24 02:07 | 33.92853 | -118.15875 | 2005 ft | 179 kts | 281° |
| 2026-04-24 02:07 | 33.93118 | -118.17343 | 2003 ft | 178 kts | 281° |
| 2026-04-24 02:08 | 33.93383 | -118.18797 | 1997 ft | 176 kts | 281° |
| 2026-04-24 02:08 | 33.93638 | -118.20219 | 2008 ft | 175 kts | 281° |
| 2026-04-24 02:08 | 33.93891 | -118.21655 | 2002 ft | 176 kts | 282° |
| 2026-04-24 02:08 | 33.94140 | -118.23093 | 2000 ft | 175 kts | 281° |
| 2026-04-24 02:09 | 33.94388 | -118.24529 | 2014 ft | 176 kts | 281° |
| 2026-04-24 02:09 | 33.94638 | -118.25987 | 1899 ft | 179 kts | 281° |
| 2026-04-24 02:09 | 33.94736 | -118.27471 | 1827 ft | 177 kts | 269° |
| 2026-04-24 02:09 | 33.94680 | -118.28937 | 1650 ft | 170 kts | 265° |
| 2026-04-24 02:10 | 33.94559 | -118.30250 | 1457 ft | 151 kts | 264° |
| 2026-04-24 02:10 | 33.94434 | -118.31456 | 1241 ft | 141 kts | 264° |
| 2026-04-24 02:10 | 33.94315 | -118.32623 | 1092 ft | 142 kts | 264° |
| 2026-04-24 02:10 | 33.94192 | -118.33814 | 879 ft | 143 kts | 263° |
| 2026-04-24 02:11 | 33.94070 | -118.35003 | 690 ft | 144 kts | 263° |
| 2026-04-24 02:11 | 33.93951 | -118.36190 | 474 ft | 142 kts | 263° |
| 2026-04-24 02:11 | 33.93831 | -118.37369 | 290 ft | 141 kts | 262° |
| 2026-04-24 02:11 | 33.93712 | -118.38532 | 124 ft | 139 kts | 262° |
| 2026-04-24 02:12 | 33.93600 | -118.39606 | 109 ft | 114 kts | 263° |
| 2026-04-24 02:12 | 33.93523 | -118.40370 | 111 ft | 70 kts | 263° |
| 2026-04-24 02:12 | 33.93481 | -118.40776 | 111 ft | 35 kts | 264° |
| 2026-04-24 02:12 | 33.93496 | -118.41045 | 110 ft | 21 kts | 285° |
| 2026-04-24 02:13 | 33.93537 | -118.41178 | 106 ft | 14 kts | 290° |
| 2026-04-24 02:13 | 33.93592 | -118.41251 | 106 ft | 15 kts | 333° |
| 2026-04-24 02:13 | 33.93692 | -118.41276 | 108 ft | 15 kts | 354° |
| 2026-04-24 02:13 | 33.93746 | -118.41267 | 102 ft | 0 kts | 16° |
| 2026-04-24 02:14 | 33.93753 | -118.41263 | 102 ft | 0 kts | 24° |
| 2026-04-24 02:15 | 33.93762 | -118.41230 | 101 ft | 8 kts | 90° |
| 2026-04-24 02:15 | 33.93765 | -118.41108 | 101 ft | 17 kts | 84° |
| 2026-04-24 02:16 | 33.93777 | -118.40981 | 101 ft | 0 kts | 83° |
| 2026-04-24 02:18 | 33.93785 | -118.40908 | 101 ft | 14 kts | 83° |
| 2026-04-24 02:18 | 33.93796 | -118.40795 | 100 ft | 13 kts | 81° |
| 2026-04-24 02:18 | 33.93808 | -118.40686 | 101 ft | 13 kts | 83° |
| 2026-04-24 02:18 | 33.93819 | -118.40580 | 102 ft | 13 kts | 81° |
| 2026-04-24 02:19 | 33.93830 | -118.40472 | 102 ft | 17 kts | 84° |
| 2026-04-24 02:19 | 33.93846 | -118.40309 | 103 ft | 20 kts | 82° |
| 2026-04-24 02:19 | 33.93863 | -118.40147 | 103 ft | 19 kts | 83° |
| 2026-04-24 02:19 | 33.93926 | -118.40052 | 100 ft | 13 kts | 354° |
| 2026-04-24 02:20 | 33.94011 | -118.40063 | 97 ft | 11 kts | 353° |
| 2026-04-24 02:20 | 33.94054 | -118.40083 | 97 ft | 4 kts | 289° |
| 2026-04-24 02:20 | 33.94054 | -118.40123 | 98 ft | 4 kts | 265° |
| 2026-04-24 02:20 | 33.94054 | -118.40130 | 98 ft | 0 kts | 265° |